P/v Golden Gate — WDE5665 — position and weather

sailwx.info

Track history (hours):
 
Tides and Currents Weather Stations Pressure Air Temp Water Temp Dewpoint Dewpoint Depression Visibility Wind Speed Wind Dir Waves Ship Positions

P/v Golden Gate

Owner: San Francisco Bar Pilots Benevolent and Protective, San Francisco, CA. More information available from US FCC via Universal Licensing System and Coast Guard Vessel Documentation Center.

Last reported at 2016-Jul-28 02:34 UTC. Time now 2016-Jul-28 02:55 UTC.
Position N 37°46' W 122°21'.

Length 23 m; draft 2 m.

Type: Pilot. MMSI: 367370010.

Date/timePositionNaut miles runAvg speedWind from/ knotsBaromVisibWave heightAir tempDewpointWater temp
2016-Jul-28 02:34N 37°46' W 122°21'3 3.0
2016-Jul-28 01:33N 37°48' W 122°24'2 1.7
2016-Jul-28 00:33N 37°50' W 122°25'2 1.7
2016-Jul-27 23:33N 37°48' W 122°24'8 7.6
2016-Jul-27 22:34N 37°47' W 122°33'8 7.6
2016-Jul-27 21:33N 37°48' W 122°24'0 0.0
2016-Jul-27 20:33N 37°48' W 122°24'0 0.0
2016-Jul-27 19:33N 37°48' W 122°24'0 0.0
2016-Jul-27 18:34N 37°48' W 122°24'1 1.2
2016-Jul-27 17:33N 37°47' W 122°23'2 2.0
2016-Jul-27 16:33N 37°46' W 122°20'3 3.1
2016-Jul-27 15:33N 37°48' W 122°24'2 2.0
2016-Jul-27 14:34N 37°48' W 122°21'3 3.1
2016-Jul-27 13:33N 37°49' W 122°25'1 0.9
2016-Jul-27 12:34N 37°49' W 122°26'3 2.5
2016-Jul-27 11:33N 37°48' W 122°23'3 2.9
2016-Jul-27 10:33N 37°48' W 122°20'1111.4
2016-Jul-27 09:33N 37°47' W 122°34'8 8.1
2016-Jul-27 08:33N 37°48' W 122°24'0 0.0
2016-Jul-27 07:33N 37°48' W 122°24'3 2.9
2016-Jul-27 06:33N 37°46' W 122°21'3 2.9
2016-Jul-27 05:34N 37°48' W 122°24'7 6.9
2016-Jul-27 04:34N 37°47' W 122°32'7 6.9
2016-Jul-27 03:33N 37°48' W 122°24'0 0.2
2016-Jul-27 02:34N 37°48' W 122°24'1 1.3
2016-Jul-27 01:34N 37°48' W 122°22'4 3.9
2016-Jul-27 00:34N 37°45' W 122°21'1211.8
2016-Jul-26 23:33N 37°46' W 122°36'1312.9
2016-Jul-26 22:34N 37°48' W 122°20'3 2.9
2016-Jul-26 21:33N 37°48' W 122°24'3 3.5
2016-Jul-26 20:34N 37°45' W 122°21'3 3.5
2016-Jul-26 19:33N 37°48' W 122°24'0 0.0
2016-Jul-26 18:33N 37°48' W 122°24'0 0.0
2016-Jul-26 17:33N 37°48' W 122°24'0 0.0
2016-Jul-26 16:33N 37°48' W 122°24'0 0.0
2016-Jul-26 15:33N 37°48' W 122°24'0 0.0
2016-Jul-26 14:33N 37°48' W 122°24'0 0.0
2016-Jul-26 13:33N 37°48' W 122°24'0 0.0
2016-Jul-26 12:33N 37°48' W 122°24'0 0.0
2016-Jul-26 11:33N 37°48' W 122°24'0 0.0
2016-Jul-26 10:34N 37°48' W 122°24'1110.9
2016-Jul-26 09:33N 37°46' W 122°37'1111.0
2016-Jul-26 08:33N 37°48' W 122°24'0 0.0
2016-Jul-26 07:33N 37°48' W 122°24'5 5.0
2016-Jul-26 06:34N 37°48' W 122°30'1 1.4
2016-Jul-26 05:32N 37°48' W 122°32'8 8.1
2016-Jul-26 04:33N 37°46' W 122°22'2 2.3
2016-Jul-26 03:33N 37°48' W 122°23'0 0.3
2016-Jul-26 02:33N 37°48' W 122°24'2 1.8
2016-Jul-26 01:33N 37°48' W 122°22'2 1.8
2016-Jul-26 00:33N 37°48' W 122°24'0 0.0
2016-Jul-25 23:33N 37°48' W 122°24'0 0.0
2016-Jul-25 22:34N 37°48' W 122°24'3 3.4
2016-Jul-25 21:34N 37°45' W 122°21'3 3.4
2016-Jul-25 20:33N 37°48' W 122°24'0 0.0
2016-Jul-25 19:33N 37°48' W 122°24'0 0.0
2016-Jul-25 18:33N 37°48' W 122°24'2 2.5
2016-Jul-25 17:33N 37°46' W 122°22'2 2.5
2016-Jul-25 16:33N 37°48' W 122°24'1 1.2
2016-Jul-25 15:33N 37°49' W 122°25'3 3.0
2016-Jul-25 14:34N 37°47' W 122°22'2 1.8
2016-Jul-25 13:33N 37°48' W 122°24'0 0.0
2016-Jul-25 12:33N 37°48' W 122°24'3 3.0
2016-Jul-25 11:33N 37°46' W 122°21'3 3.0
2016-Jul-25 10:33N 37°48' W 122°24'0 0.0
2016-Jul-25 09:33N 37°48' W 122°24'0 0.0
2016-Jul-25 08:34N 37°48' W 122°24'0 0.0
2016-Jul-25 07:33N 37°48' W 122°24'0 0.0
2016-Jul-25 06:33N 37°48' W 122°24'3 2.8
2016-Jul-25 05:33N 37°48' W 122°20'3 2.8
2016-Jul-25 04:33N 37°48' W 122°24'0 0.0
2016-Jul-25 03:33N 37°48' W 122°24'4 4.5
2016-Jul-25 02:34N 37°48' W 122°18'4 4.4
2016-Jul-25 01:33N 37°48' W 122°24'0 0.0
2016-Jul-25 00:33N 37°48' W 122°24'3 3.4
2016-Jul-24 23:33N 37°49' W 122°28'3 3.4
2016-Jul-24 22:33N 37°48' W 122°24'3 3.1
2016-Jul-24 21:34N 37°48' W 122°20'3 2.9
2016-Jul-24 20:34N 37°49' W 122°23'1 0.6
2016-Jul-24 19:33N 37°48' W 122°24'0 0.4
2016-Jul-24 18:34N 37°48' W 122°24'0 0.4
2016-Jul-24 17:33N 37°48' W 122°24'0 0.0
2016-Jul-24 16:34N 37°48' W 122°24'0 0.0
2016-Jul-24 15:33N 37°48' W 122°24'0 0.0
2016-Jul-24 14:33N 37°48' W 122°24'0 0.0
2016-Jul-24 13:33N 37°48' W 122°24'0 0.0
2016-Jul-24 12:33N 37°48' W 122°24'0 0.0
2016-Jul-24 11:33N 37°48' W 122°24'5 5.4
2016-Jul-24 10:33N 37°44' W 122°20'9 9.4
2016-Jul-24 09:34N 37°48' W 122°30'4 3.9
2016-Jul-24 08:33N 37°49' W 122°25'1 1.4
2016-Jul-24 07:33N 37°48' W 122°24'3 3.1
2016-Jul-24 06:34N 37°46' W 122°21'2 2.1
2016-Jul-24 05:33N 37°48' W 122°20'3 3.3
2016-Jul-24 04:33N 37°48' W 122°24'0 0.0
2016-Jul-24 03:33N 37°48' W 122°24'0 0.0
2016-Jul-24 02:33N 37°48' W 122°24'0 0.0
2016-Jul-24 01:33N 37°48' W 122°24'0 0.0
2016-Jul-24 00:33N 37°48' W 122°24'0 0.0
2016-Jul-23 23:33N 37°48' W 122°24'0 0.0
2016-Jul-23 22:33N 37°48' W 122°24'0 0.0
2016-Jul-23 21:33N 37°48' W 122°24'0 0.0
2016-Jul-23 20:33N 37°48' W 122°24'0 0.0
2016-Jul-23 19:33N 37°48' W 122°24'0 0.0
2016-Jul-23 18:33N 37°48' W 122°24'0 0.0
2016-Jul-23 17:33N 37°48' W 122°24'0 0.0
2016-Jul-23 16:33N 37°48' W 122°24'1 1.0
2016-Jul-23 15:17N 37°49' W 122°25'1114.8
2016-Jul-23 14:33N 37°46' W 122°39'1212.0
2016-Jul-23 13:33N 37°48' W 122°24'0 0.0
2016-Jul-23 12:33N 37°48' W 122°24'0 0.0
2016-Jul-23 11:33N 37°48' W 122°24'0 0.0
2016-Jul-23 10:33N 37°48' W 122°24'10 9.5
2016-Jul-23 09:32N 37°47' W 122°36'10 9.7
2016-Jul-23 08:33N 37°48' W 122°24'0 0.0
2016-Jul-23 07:33N 37°48' W 122°24'0 0.0
2016-Jul-23 06:33N 37°48' W 122°24'0 0.0
2016-Jul-23 04:33N 37°48' W 122°24'1 1.4
2016-Jul-23 03:33N 37°49' W 122°25'9 8.9
2016-Jul-23 02:33N 37°47' W 122°36'10 9.7
2016-Jul-23 01:33N 37°48' W 122°24'0 0.0
2016-Jul-23 00:33N 37°48' W 122°24'0 0.0
2016-Jul-22 23:33N 37°48' W 122°24'0 0.0
2016-Jul-22 22:33N 37°48' W 122°24'0 0.1
2016-Jul-22 21:34N 37°48' W 122°24'3 3.2
2016-Jul-22 20:33N 37°46' W 122°21'3 3.2
2016-Jul-22 19:33N 37°48' W 122°24'0 0.0
2016-Jul-22 18:33N 37°48' W 122°24'0 0.0
2016-Jul-22 17:33N 37°48' W 122°24'0 0.0
2016-Jul-22 16:33N 37°48' W 122°24'5 4.7
2016-Jul-22 15:34N 37°44' W 122°20'5 4.7
2016-Jul-22 14:33N 37°48' W 122°24'0 0.1
2016-Jul-22 13:33N 37°48' W 122°24'0 0.0
2016-Jul-22 12:34N 37°48' W 122°24'0 0.0
2016-Jul-22 11:31N 37°48' W 122°24'2 2.6
2016-Jul-22 10:33N 37°47' W 122°21'5 5.1
2016-Jul-22 09:33N 37°49' W 122°27'3 2.6
2016-Jul-22 08:33N 37°48' W 122°24'0 0.0
2016-Jul-22 07:33N 37°48' W 122°24'0 0.0
2016-Jul-22 05:33N 37°48' W 122°24'0 0.0
2016-Jul-22 04:33N 37°48' W 122°24'0 0.0
2016-Jul-22 03:33N 37°48' W 122°24'2 2.3
2016-Jul-22 02:34N 37°49' W 122°26'7 7.3
2016-Jul-22 01:34N 37°44' W 122°20'5 5.1
2016-Jul-22 00:34N 37°48' W 122°23'4 3.6
2016-Jul-21 23:33N 37°45' W 122°21'4 3.9
2016-Jul-21 22:33N 37°48' W 122°24'4 3.6
2016-Jul-21 21:34N 37°48' W 122°19'4 3.6
2016-Jul-21 20:33N 37°48' W 122°24'0 0.0
2016-Jul-21 19:33N 37°48' W 122°24'3 3.3
2016-Jul-21 18:33N 37°45' W 122°21'3 3.3
2016-Jul-21 17:33N 37°48' W 122°24'0 0.0
2016-Jul-21 16:33N 37°48' W 122°24'1 0.9
2016-Jul-21 15:15N 37°49' W 122°25'6 9.2
2016-Jul-21 14:33N 37°47' W 122°17'5 5.0
2016-Jul-21 13:32N 37°48' W 122°24'0 0.0
2016-Jul-21 12:33N 37°48' W 122°24'0 0.0
2016-Jul-21 11:34N 37°48' W 122°24'0 0.0
2016-Jul-21 10:33N 37°48' W 122°24'0 0.0
2016-Jul-21 09:33N 37°48' W 122°24'0 0.0
2016-Jul-21 08:33N 37°48' W 122°24'0 0.0
2016-Jul-21 07:33N 37°48' W 122°24'1 1.5
2016-Jul-21 06:33N 37°49' W 122°25'2 2.3
2016-Jul-21 05:34N 37°50' W 122°28'8 7.7
2016-Jul-21 04:33N 37°48' W 122°18'2 2.3
2016-Jul-21 03:34N 37°46' W 122°21'1 0.9
2016-Jul-21 02:33N 37°45' W 122°20'4 3.9
2016-Jul-21 01:33N 37°48' W 122°24'2 2.3
2016-Jul-21 00:33N 37°48' W 122°21'1 1.3
2016-Jul-20 23:33N 37°48' W 122°23'1 1.0
2016-Jul-20 22:33N 37°48' W 122°24'10 9.9
2016-Jul-20 21:33N 37°46' W 122°36'1312.8
2016-Jul-20 20:33N 37°49' W 122°20'3 2.8
2016-Jul-20 19:33N 37°48' W 122°24'0 0.0
2016-Jul-20 18:33N 37°48' W 122°24'0 0.0
2016-Jul-20 17:33N 37°48' W 122°24'0 0.2
2016-Jul-20 16:34N 37°48' W 122°23'0 0.2
2016-Jul-20 15:33N 37°48' W 122°24'0 0.0
2016-Jul-20 14:33N 37°48' W 122°24'0 0.0
2016-Jul-20 13:33N 37°48' W 122°24'0 0.0
2016-Jul-20 12:34N 37°48' W 122°24'0 0.0
2016-Jul-20 11:33N 37°48' W 122°24'1 1.1
2016-Jul-20 10:33N 37°48' W 122°22'1 1.1
2016-Jul-20 09:34N 37°48' W 122°24'0 0.0
2016-Jul-20 08:33N 37°48' W 122°24'0 0.0
2016-Jul-20 07:33N 37°48' W 122°24'0 0.0
2016-Jul-20 06:34N 37°48' W 122°24'0 0.0
2016-Jul-20 05:33N 37°48' W 122°24'2 1.8
2016-Jul-20 04:34N 37°49' W 122°26'2 1.7
2016-Jul-20 03:33N 37°48' W 122°24'0 0.0
2016-Jul-20 02:33N 37°48' W 122°24'0 0.0
2016-Jul-20 01:33N 37°48' W 122°24'3 2.8
2016-Jul-20 00:33N 37°46' W 122°21'2 2.4
2016-Jul-19 23:34N 37°49' W 122°20'3 1.2
2016-Jul-19 21:13N 37°48' W 122°24'0 0.0
2016-Jul-19 20:33N 37°48' W 122°24'7 6.8
2016-Jul-19 19:34N 37°47' W 122°32'6 1.7
2016-Jul-19 16:15N 37°49' W 122°25'1 1.3
2016-Jul-19 15:33N 37°49' W 122°26'2 1.8
2016-Jul-19 14:23N 37°48' W 122°24'0 0.0
2016-Jul-19 13:13N 37°48' W 122°24'0 0.0
2016-Jul-19 11:33N 37°48' W 122°24'2 0.3
2016-Jul-19 04:33N 37°47' W 122°22'2 0.4
2016-Jul-19 00:24N 37°48' W 122°24'5 5.4
2016-Jul-18 23:33N 37°48' W 122°18'1 0.8
2016-Jul-18 22:33N 37°48' W 122°19'4 1.8
2016-Jul-18 20:29N 37°48' W 122°24'2 2.1
2016-Jul-18 19:33N 37°49' W 122°26'3 3.5
2016-Jul-18 18:34N 37°48' W 122°30'3 2.6
2016-Jul-18 17:34N 37°49' W 122°27'2 1.0
2016-Jul-18 15:31N 37°49' W 122°24'2 1.7
2016-Jul-18 14:33N 37°49' W 122°26'2 1.7
2016-Jul-18 13:12N 37°48' W 122°24'3 4.2
2016-Jul-18 12:33N 37°48' W 122°20'2 1.1
2016-Jul-18 10:33N 37°46' W 122°22'1 0.3
2016-Jul-18 07:33N 37°46' W 122°21'3 1.7
2016-Jul-18 05:30N 37°48' W 122°24'  
Track history (hours):
 
Tides and Currents Weather Stations Pressure Air Temp Water Temp Dewpoint Dewpoint Depression Visibility Wind Speed Wind Dir Waves Ship Positions

P/v Golden Gate

Owner: San Francisco Bar Pilots Benevolent and Protective, San Francisco, CA. More information available from US FCC via Universal Licensing System and Coast Guard Vessel Documentation Center.

Last reported at 2016-Jul-28 02:34 UTC. Time now 2016-Jul-28 02:55 UTC.
Position N 37°46' W 122°21'.

Length 23 m; draft 2 m.

Type: Pilot. MMSI: 367370010.

Date/timePositionNaut miles runAvg speedWind from/ knotsBaromVisibWave heightAir tempDewpointWater temp
2016-Jul-28 02:34N 37°46' W 122°21'3 3.0
2016-Jul-28 01:33N 37°48' W 122°24'2 1.7
2016-Jul-28 00:33N 37°50' W 122°25'2 1.7
2016-Jul-27 23:33N 37°48' W 122°24'8 7.6
2016-Jul-27 22:34N 37°47' W 122°33'8 7.6
2016-Jul-27 21:33N 37°48' W 122°24'0 0.0
2016-Jul-27 20:33N 37°48' W 122°24'0 0.0
2016-Jul-27 19:33N 37°48' W 122°24'0 0.0
2016-Jul-27 18:34N 37°48' W 122°24'1 1.2
2016-Jul-27 17:33N 37°47' W 122°23'2 2.0
2016-Jul-27 16:33N 37°46' W 122°20'3 3.1
2016-Jul-27 15:33N 37°48' W 122°24'2 2.0
2016-Jul-27 14:34N 37°48' W 122°21'3 3.1
2016-Jul-27 13:33N 37°49' W 122°25'1 0.9
2016-Jul-27 12:34N 37°49' W 122°26'3 2.5
2016-Jul-27 11:33N 37°48' W 122°23'3 2.9
2016-Jul-27 10:33N 37°48' W 122°20'1111.4
2016-Jul-27 09:33N 37°47' W 122°34'8 8.1
2016-Jul-27 08:33N 37°48' W 122°24'0 0.0
2016-Jul-27 07:33N 37°48' W 122°24'3 2.9
2016-Jul-27 06:33N 37°46' W 122°21'3 2.9
2016-Jul-27 05:34N 37°48' W 122°24'7 6.9
2016-Jul-27 04:34N 37°47' W 122°32'7 6.9
2016-Jul-27 03:33N 37°48' W 122°24'0 0.2
2016-Jul-27 02:34N 37°48' W 122°24'1 1.3
2016-Jul-27 01:34N 37°48' W 122°22'4 3.9
2016-Jul-27 00:34N 37°45' W 122°21'1211.8
2016-Jul-26 23:33N 37°46' W 122°36'1312.9
2016-Jul-26 22:34N 37°48' W 122°20'3 2.9
2016-Jul-26 21:33N 37°48' W 122°24'3 3.5
2016-Jul-26 20:34N 37°45' W 122°21'3 3.5
2016-Jul-26 19:33N 37°48' W 122°24'0 0.0
2016-Jul-26 18:33N 37°48' W 122°24'0 0.0
2016-Jul-26 17:33N 37°48' W 122°24'0 0.0
2016-Jul-26 16:33N 37°48' W 122°24'0 0.0
2016-Jul-26 15:33N 37°48' W 122°24'0 0.0
2016-Jul-26 14:33N 37°48' W 122°24'0 0.0
2016-Jul-26 13:33N 37°48' W 122°24'0 0.0
2016-Jul-26 12:33N 37°48' W 122°24'0 0.0
2016-Jul-26 11:33N 37°48' W 122°24'0 0.0
2016-Jul-26 10:34N 37°48' W 122°24'1110.9
2016-Jul-26 09:33N 37°46' W 122°37'1111.0
2016-Jul-26 08:33N 37°48' W 122°24'0 0.0
2016-Jul-26 07:33N 37°48' W 122°24'5 5.0
2016-Jul-26 06:34N 37°48' W 122°30'1 1.4
2016-Jul-26 05:32N 37°48' W 122°32'8 8.1
2016-Jul-26 04:33N 37°46' W 122°22'2 2.3
2016-Jul-26 03:33N 37°48' W 122°23'0 0.3
2016-Jul-26 02:33N 37°48' W 122°24'2 1.8
2016-Jul-26 01:33N 37°48' W 122°22'2 1.8
2016-Jul-26 00:33N 37°48' W 122°24'0 0.0
2016-Jul-25 23:33N 37°48' W 122°24'0 0.0
2016-Jul-25 22:34N 37°48' W 122°24'3 3.4
2016-Jul-25 21:34N 37°45' W 122°21'3 3.4
2016-Jul-25 20:33N 37°48' W 122°24'0 0.0
2016-Jul-25 19:33N 37°48' W 122°24'0 0.0
2016-Jul-25 18:33N 37°48' W 122°24'2 2.5
2016-Jul-25 17:33N 37°46' W 122°22'2 2.5
2016-Jul-25 16:33N 37°48' W 122°24'1 1.2
2016-Jul-25 15:33N 37°49' W 122°25'3 3.0
2016-Jul-25 14:34N 37°47' W 122°22'2 1.8
2016-Jul-25 13:33N 37°48' W 122°24'0 0.0
2016-Jul-25 12:33N 37°48' W 122°24'3 3.0
2016-Jul-25 11:33N 37°46' W 122°21'3 3.0
2016-Jul-25 10:33N 37°48' W 122°24'0 0.0
2016-Jul-25 09:33N 37°48' W 122°24'0 0.0
2016-Jul-25 08:34N 37°48' W 122°24'0 0.0
2016-Jul-25 07:33N 37°48' W 122°24'0 0.0
2016-Jul-25 06:33N 37°48' W 122°24'3 2.8
2016-Jul-25 05:33N 37°48' W 122°20'3 2.8
2016-Jul-25 04:33N 37°48' W 122°24'0 0.0
2016-Jul-25 03:33N 37°48' W 122°24'4 4.5
2016-Jul-25 02:34N 37°48' W 122°18'4 4.4
2016-Jul-25 01:33N 37°48' W 122°24'0 0.0
2016-Jul-25 00:33N 37°48' W 122°24'3 3.4
2016-Jul-24 23:33N 37°49' W 122°28'3 3.4
2016-Jul-24 22:33N 37°48' W 122°24'3 3.1
2016-Jul-24 21:34N 37°48' W 122°20'3 2.9
2016-Jul-24 20:34N 37°49' W 122°23'1 0.6
2016-Jul-24 19:33N 37°48' W 122°24'0 0.4
2016-Jul-24 18:34N 37°48' W 122°24'0 0.4
2016-Jul-24 17:33N 37°48' W 122°24'0 0.0
2016-Jul-24 16:34N 37°48' W 122°24'0 0.0
2016-Jul-24 15:33N 37°48' W 122°24'0 0.0
2016-Jul-24 14:33N 37°48' W 122°24'0 0.0
2016-Jul-24 13:33N 37°48' W 122°24'0 0.0
2016-Jul-24 12:33N 37°48' W 122°24'0 0.0
2016-Jul-24 11:33N 37°48' W 122°24'5 5.4
2016-Jul-24 10:33N 37°44' W 122°20'9 9.4
2016-Jul-24 09:34N 37°48' W 122°30'4 3.9
2016-Jul-24 08:33N 37°49' W 122°25'1 1.4
2016-Jul-24 07:33N 37°48' W 122°24'3 3.1
2016-Jul-24 06:34N 37°46' W 122°21'2 2.1
2016-Jul-24 05:33N 37°48' W 122°20'3 3.3
2016-Jul-24 04:33N 37°48' W 122°24'0 0.0
2016-Jul-24 03:33N 37°48' W 122°24'0 0.0
2016-Jul-24 02:33N 37°48' W 122°24'0 0.0
2016-Jul-24 01:33N 37°48' W 122°24'0 0.0
2016-Jul-24 00:33N 37°48' W 122°24'0 0.0
2016-Jul-23 23:33N 37°48' W 122°24'0 0.0
2016-Jul-23 22:33N 37°48' W 122°24'0 0.0
2016-Jul-23 21:33N 37°48' W 122°24'0 0.0
2016-Jul-23 20:33N 37°48' W 122°24'0 0.0
2016-Jul-23 19:33N 37°48' W 122°24'0 0.0
2016-Jul-23 18:33N 37°48' W 122°24'0 0.0
2016-Jul-23 17:33N 37°48' W 122°24'0 0.0
2016-Jul-23 16:33N 37°48' W 122°24'1 1.0
2016-Jul-23 15:17N 37°49' W 122°25'1114.8
2016-Jul-23 14:33N 37°46' W 122°39'1212.0
2016-Jul-23 13:33N 37°48' W 122°24'0 0.0
2016-Jul-23 12:33N 37°48' W 122°24'0 0.0
2016-Jul-23 11:33N 37°48' W 122°24'0 0.0
2016-Jul-23 10:33N 37°48' W 122°24'10 9.5
2016-Jul-23 09:32N 37°47' W 122°36'10 9.7
2016-Jul-23 08:33N 37°48' W 122°24'0 0.0
2016-Jul-23 07:33N 37°48' W 122°24'0 0.0
2016-Jul-23 06:33N 37°48' W 122°24'0 0.0
2016-Jul-23 04:33N 37°48' W 122°24'1 1.4
2016-Jul-23 03:33N 37°49' W 122°25'9 8.9
2016-Jul-23 02:33N 37°47' W 122°36'10 9.7
2016-Jul-23 01:33N 37°48' W 122°24'0 0.0
2016-Jul-23 00:33N 37°48' W 122°24'0 0.0
2016-Jul-22 23:33N 37°48' W 122°24'0 0.0
2016-Jul-22 22:33N 37°48' W 122°24'0 0.1
2016-Jul-22 21:34N 37°48' W 122°24'3 3.2
2016-Jul-22 20:33N 37°46' W 122°21'3 3.2
2016-Jul-22 19:33N 37°48' W 122°24'0 0.0
2016-Jul-22 18:33N 37°48' W 122°24'0 0.0
2016-Jul-22 17:33N 37°48' W 122°24'0 0.0
2016-Jul-22 16:33N 37°48' W 122°24'5 4.7
2016-Jul-22 15:34N 37°44' W 122°20'5 4.7
2016-Jul-22 14:33N 37°48' W 122°24'0 0.1
2016-Jul-22 13:33N 37°48' W 122°24'0 0.0
2016-Jul-22 12:34N 37°48' W 122°24'0 0.0
2016-Jul-22 11:31N 37°48' W 122°24'2 2.6
2016-Jul-22 10:33N 37°47' W 122°21'5 5.1
2016-Jul-22 09:33N 37°49' W 122°27'3 2.6
2016-Jul-22 08:33N 37°48' W 122°24'0 0.0
2016-Jul-22 07:33N 37°48' W 122°24'0 0.0
2016-Jul-22 05:33N 37°48' W 122°24'0 0.0
2016-Jul-22 04:33N 37°48' W 122°24'0 0.0
2016-Jul-22 03:33N 37°48' W 122°24'2 2.3
2016-Jul-22 02:34N 37°49' W 122°26'7 7.3
2016-Jul-22 01:34N 37°44' W 122°20'5 5.1
2016-Jul-22 00:34N 37°48' W 122°23'4 3.6
2016-Jul-21 23:33N 37°45' W 122°21'4 3.9
2016-Jul-21 22:33N 37°48' W 122°24'4 3.6
2016-Jul-21 21:34N 37°48' W 122°19'4 3.6
2016-Jul-21 20:33N 37°48' W 122°24'0 0.0
2016-Jul-21 19:33N 37°48' W 122°24'3 3.3
2016-Jul-21 18:33N 37°45' W 122°21'3 3.3
2016-Jul-21 17:33N 37°48' W 122°24'0 0.0
2016-Jul-21 16:33N 37°48' W 122°24'1 0.9
2016-Jul-21 15:15N 37°49' W 122°25'6 9.2
2016-Jul-21 14:33N 37°47' W 122°17'5 5.0
2016-Jul-21 13:32N 37°48' W 122°24'0 0.0
2016-Jul-21 12:33N 37°48' W 122°24'0 0.0
2016-Jul-21 11:34N 37°48' W 122°24'0 0.0
2016-Jul-21 10:33N 37°48' W 122°24'0 0.0
2016-Jul-21 09:33N 37°48' W 122°24'0 0.0
2016-Jul-21 08:33N 37°48' W 122°24'0 0.0
2016-Jul-21 07:33N 37°48' W 122°24'1 1.5
2016-Jul-21 06:33N 37°49' W 122°25'2 2.3
2016-Jul-21 05:34N 37°50' W 122°28'8 7.7
2016-Jul-21 04:33N 37°48' W 122°18'2 2.3
2016-Jul-21 03:34N 37°46' W 122°21'1 0.9
2016-Jul-21 02:33N 37°45' W 122°20'4 3.9
2016-Jul-21 01:33N 37°48' W 122°24'2 2.3
2016-Jul-21 00:33N 37°48' W 122°21'1 1.3
2016-Jul-20 23:33N 37°48' W 122°23'1 1.0
2016-Jul-20 22:33N 37°48' W 122°24'10 9.9
2016-Jul-20 21:33N 37°46' W 122°36'1312.8
2016-Jul-20 20:33N 37°49' W 122°20'3 2.8
2016-Jul-20 19:33N 37°48' W 122°24'0 0.0
2016-Jul-20 18:33N 37°48' W 122°24'0 0.0
2016-Jul-20 17:33N 37°48' W 122°24'0 0.2
2016-Jul-20 16:34N 37°48' W 122°23'0 0.2
2016-Jul-20 15:33N 37°48' W 122°24'0 0.0
2016-Jul-20 14:33N 37°48' W 122°24'0 0.0
2016-Jul-20 13:33N 37°48' W 122°24'0 0.0
2016-Jul-20 12:34N 37°48' W 122°24'0 0.0
2016-Jul-20 11:33N 37°48' W 122°24'1 1.1
2016-Jul-20 10:33N 37°48' W 122°22'1 1.1
2016-Jul-20 09:34N 37°48' W 122°24'0 0.0
2016-Jul-20 08:33N 37°48' W 122°24'0 0.0
2016-Jul-20 07:33N 37°48' W 122°24'0 0.0
2016-Jul-20 06:34N 37°48' W 122°24'0 0.0
2016-Jul-20 05:33N 37°48' W 122°24'2 1.8
2016-Jul-20 04:34N 37°49' W 122°26'2 1.7
2016-Jul-20 03:33N 37°48' W 122°24'0 0.0
2016-Jul-20 02:33N 37°48' W 122°24'0 0.0
2016-Jul-20 01:33N 37°48' W 122°24'3 2.8
2016-Jul-20 00:33N 37°46' W 122°21'2 2.4
2016-Jul-19 23:34N 37°49' W 122°20'3 1.2
2016-Jul-19 21:13N 37°48' W 122°24'0 0.0
2016-Jul-19 20:33N 37°48' W 122°24'7 6.8
2016-Jul-19 19:34N 37°47' W 122°32'6 1.7
2016-Jul-19 16:15N 37°49' W 122°25'1 1.3
2016-Jul-19 15:33N 37°49' W 122°26'2 1.8
2016-Jul-19 14:23N 37°48' W 122°24'0 0.0
2016-Jul-19 13:13N 37°48' W 122°24'0 0.0
2016-Jul-19 11:33N 37°48' W 122°24'2 0.3
2016-Jul-19 04:33N 37°47' W 122°22'2 0.4
2016-Jul-19 00:24N 37°48' W 122°24'5 5.4
2016-Jul-18 23:33N 37°48' W 122°18'1 0.8
2016-Jul-18 22:33N 37°48' W 122°19'4 1.8
2016-Jul-18 20:29N 37°48' W 122°24'2 2.1
2016-Jul-18 19:33N 37°49' W 122°26'3 3.5
2016-Jul-18 18:34N 37°48' W 122°30'3 2.6
2016-Jul-18 17:34N 37°49' W 122°27'2 1.0
2016-Jul-18 15:31N 37°49' W 122°24'2 1.7
2016-Jul-18 14:33N 37°49' W 122°26'2 1.7
2016-Jul-18 13:12N 37°48' W 122°24'3 4.2
2016-Jul-18 12:33N 37°48' W 122°20'2 1.1
2016-Jul-18 10:33N 37°46' W 122°22'1 0.3
2016-Jul-18 07:33N 37°46' W 122°21'3 1.7
2016-Jul-18 05:30N 37°48' W 122°24'  

Dump ship's entire track history